createdAt,value
2022-12-01T00:01:22.476Z,44.93
2022-12-01T00:03:50.587Z,32.40
2022-12-01T00:06:20.717Z,45.80
2022-12-01T00:09:08.758Z,26.30
2022-12-01T00:11:37.954Z,43.47
2022-12-01T00:14:07.870Z,40.47
2022-12-01T00:16:37.302Z,45.90
2022-12-01T00:19:05.335Z,43.50
2022-12-01T00:21:33.427Z,45.83
2022-12-01T00:24:01.359Z,32.30
2022-12-01T00:26:29.429Z,40.07
2022-12-01T00:28:59.216Z,37.87
2022-12-01T00:31:29.628Z,39.60
2022-12-01T00:33:57.523Z,45.43
2022-12-01T00:36:25.539Z,37.83
2022-12-01T00:38:54.566Z,37.90
2022-12-01T00:41:23.295Z,34.93
2022-12-01T00:43:51.696Z,35.93
2022-12-01T00:46:20.091Z,49.00
2022-12-01T00:48:49.488Z,38.17
2022-12-01T00:51:17.588Z,45.93
2022-12-01T00:53:45.967Z,39.03
2022-12-01T00:56:14.938Z,35.40
2022-12-01T00:58:43.865Z,37.80
2022-12-01T01:01:11.967Z,40.33
2022-12-01T01:03:40.116Z,44.60
2022-12-01T01:06:11.499Z,35.90
2022-12-01T01:08:39.774Z,32.57
2022-12-01T01:11:08.790Z,31.70
2022-12-01T01:13:39.402Z,47.73
2022-12-01T01:16:11.222Z,43.00
2022-12-01T01:18:39.288Z,34.10
2022-12-01T01:21:12.317Z,42.07
2022-12-01T01:23:40.238Z,34.27
2022-12-01T01:26:09.496Z,44.10
2022-12-01T01:28:37.721Z,34.37
2022-12-01T01:31:07.338Z,60.20
2022-12-01T01:33:35.545Z,42.97
2022-12-01T01:36:04.389Z,44.07
2022-12-01T01:38:34.409Z,45.57
2022-12-01T01:41:02.468Z,39.87
2022-12-01T01:43:43.191Z,49.70
2022-12-01T01:46:13.248Z,47.33
2022-12-01T01:48:44.710Z,41.27
2022-12-01T01:51:14.290Z,46.27
2022-12-01T01:53:44.645Z,37.47
2022-12-01T01:56:12.670Z,51.40
2022-12-01T01:58:41.355Z,37.27
2022-12-01T02:01:09.609Z,35.60
2022-12-01T02:03:40.159Z,33.63
2022-12-01T02:06:10.390Z,41.10
2022-12-01T02:08:38.860Z,34.07
2022-12-01T02:11:48.615Z,29.47
2022-12-01T02:14:39.446Z,38.30
2022-12-01T02:17:16.910Z,35.90
2022-12-01T02:20:05.376Z,51.43
2022-12-01T02:22:52.183Z,36.30
2022-12-01T02:25:28.214Z,40.93
2022-12-01T02:28:22.217Z,31.97
2022-12-01T02:30:54.350Z,41.53
2022-12-01T02:33:27.869Z,40.60
2022-12-01T02:36:02.915Z,42.23
2022-12-01T02:38:36.649Z,35.00
2022-12-01T02:41:11.439Z,42.70
2022-12-01T02:43:47.266Z,45.83
2022-12-01T02:46:21.859Z,41.43
2022-12-01T02:48:53.717Z,40.03
2022-12-01T02:51:25.642Z,48.37
2022-12-01T02:53:54.853Z,51.27
2022-12-01T02:56:24.344Z,48.77
2022-12-01T02:58:52.257Z,34.17
2022-12-01T03:01:47.245Z,36.40
2022-12-01T03:04:44.701Z,41.07
2022-12-01T03:07:24.403Z,40.33
2022-12-01T03:10:02.799Z,40.40
2022-12-01T03:12:38.320Z,46.73
2022-12-01T03:15:13.558Z,42.50
2022-12-01T03:17:50.301Z,47.67
2022-12-01T03:20:24.132Z,39.10
2022-12-01T03:22:57.878Z,41.27
2022-12-01T03:25:27.247Z,38.83
2022-12-01T03:28:23.205Z,47.13
2022-12-01T03:30:47.722Z,35.73
2022-12-01T03:33:21.818Z,43.40
2022-12-01T03:35:54.464Z,41.20
2022-12-01T03:38:27.078Z,51.47
2022-12-01T03:40:59.450Z,55.17
2022-12-01T03:43:31.992Z,43.07
2022-12-01T03:46:06.285Z,52.47
2022-12-01T03:48:36.153Z,43.60
2022-12-01T03:51:12.657Z,43.20
2022-12-01T03:53:50.872Z,40.23
2022-12-01T03:56:23.589Z,42.73
2022-12-01T03:58:56.334Z,33.93
2022-12-01T04:01:26.633Z,40.30
2022-12-01T04:03:56.161Z,47.40
2022-12-01T04:06:24.181Z,45.33
2022-12-01T04:08:52.234Z,50.17
2022-12-01T04:11:37.466Z,37.80
2022-12-01T04:14:05.504Z,45.47
2022-12-01T04:16:33.628Z,40.63
2022-12-01T04:19:03.086Z,41.43
2022-12-01T04:21:31.052Z,46.40
2022-12-01T04:24:01.836Z,30.47
2022-12-01T04:26:30.213Z,38.07
2022-12-01T04:28:58.218Z,49.33
2022-12-01T04:31:26.421Z,33.67
2022-12-01T04:33:55.718Z,34.53
2022-12-01T04:36:25.154Z,36.90
2022-12-01T04:38:53.653Z,37.27
2022-12-01T04:41:21.756Z,36.20
2022-12-01T04:43:49.838Z,31.67
2022-12-01T04:46:17.878Z,37.50
2022-12-01T04:48:46.131Z,36.63
2022-12-01T04:51:14.298Z,45.23
2022-12-01T04:53:43.744Z,36.33
2022-12-01T04:56:12.183Z,37.83
2022-12-01T04:58:40.162Z,34.03
2022-12-01T05:01:11.414Z,37.77
2022-12-01T05:03:40.144Z,32.93
2022-12-01T05:06:10.966Z,42.53
2022-12-01T05:08:39.175Z,34.13
2022-12-01T05:11:09.477Z,34.33
2022-12-01T05:13:39.632Z,38.93
2022-12-01T05:16:09.311Z,44.57
2022-12-01T05:18:37.678Z,42.57
2022-12-01T05:21:06.034Z,38.90
2022-12-01T05:23:36.622Z,45.50
2022-12-01T05:26:06.603Z,43.00
2022-12-01T05:28:36.384Z,43.17
2022-12-01T05:31:04.805Z,38.73
2022-12-01T05:33:32.907Z,39.23
2022-12-01T05:36:01.032Z,25.80
2022-12-01T05:38:29.018Z,44.27
2022-12-01T05:40:58.564Z,43.50
2022-12-01T05:43:29.415Z,38.63
2022-12-01T05:45:59.635Z,48.93
2022-12-01T05:48:27.878Z,45.67
2022-12-01T05:50:55.977Z,40.10
2022-12-01T05:53:24.186Z,45.57
2022-12-01T05:55:54.461Z,46.17
2022-12-01T05:58:22.810Z,41.60
2022-12-01T06:00:50.859Z,40.67
2022-12-01T06:03:20.367Z,33.13
2022-12-01T06:05:48.399Z,45.83
2022-12-01T06:08:16.497Z,45.43
2022-12-01T06:10:45.154Z,34.63
2022-12-01T06:13:13.346Z,52.43
2022-12-01T06:15:41.390Z,48.37
2022-12-01T06:18:09.511Z,46.00
2022-12-01T06:20:38.915Z,58.60
2022-12-01T06:23:06.970Z,55.23
2022-12-01T06:25:34.932Z,41.57
2022-12-01T06:28:02.983Z,40.67
2022-12-01T06:30:31.037Z,37.40
2022-12-01T06:32:59.052Z,37.77
2022-12-01T06:35:27.138Z,36.20
2022-12-01T06:37:56.545Z,46.47
2022-12-01T06:40:24.714Z,49.07
2022-12-01T06:42:52.654Z,46.57
2022-12-01T06:45:20.664Z,52.57
2022-12-01T06:47:49.175Z,48.57
2022-12-01T06:50:17.336Z,52.67
2022-12-01T06:52:45.631Z,50.70
2022-12-01T06:55:15.188Z,54.30
2022-12-01T06:57:44.121Z,40.90
2022-12-01T07:00:14.409Z,52.33
2022-12-01T07:02:42.593Z,51.83
2022-12-01T07:05:11.010Z,42.57
2022-12-01T07:07:39.978Z,41.23
2022-12-01T07:10:10.123Z,30.03
2022-12-01T07:12:39.618Z,46.17
2022-12-01T07:15:09.632Z,51.83
2022-12-01T07:17:37.833Z,54.93
2022-12-01T07:20:06.704Z,44.77
2022-12-01T07:22:34.545Z,56.83
2022-12-01T07:25:02.641Z,34.70
2022-12-01T07:27:31.626Z,42.77
2022-12-01T07:30:01.109Z,42.57
2022-12-01T07:32:29.038Z,40.40
2022-12-01T07:34:57.010Z,37.10
2022-12-01T07:37:25.047Z,50.20
2022-12-01T07:39:53.102Z,49.73
2022-12-01T07:42:21.066Z,45.20
2022-12-01T07:44:49.045Z,43.30
2022-12-01T07:47:18.367Z,48.67
2022-12-01T07:49:46.675Z,44.73
2022-12-01T07:52:14.940Z,35.27
2022-12-01T07:54:42.902Z,46.13
2022-12-01T07:57:14.285Z,35.83
2022-12-01T07:59:42.212Z,44.77
2022-12-01T08:02:11.251Z,43.00
2022-12-01T08:04:40.730Z,44.90
2022-12-01T08:07:08.611Z,44.30
2022-12-01T08:09:37.285Z,45.27
2022-12-01T08:12:05.619Z,41.17
2022-12-01T08:14:33.598Z,46.73
2022-12-01T08:17:01.623Z,46.83
2022-12-01T08:19:29.648Z,39.93
2022-12-01T08:21:59.044Z,46.17
2022-12-01T08:24:27.126Z,35.57
2022-12-01T08:26:55.319Z,42.43
2022-12-01T08:29:23.344Z,42.50
2022-12-01T08:31:51.346Z,41.70
2022-12-01T08:34:19.704Z,42.40
2022-12-01T08:36:47.668Z,47.80
2022-12-01T08:39:17.167Z,34.13
2022-12-01T08:41:45.099Z,42.93
2022-12-01T08:44:13.194Z,49.90
2022-12-01T08:47:04.676Z,46.93
2022-12-01T08:49:32.699Z,44.47
2022-12-01T08:52:01.050Z,58.13
2022-12-01T08:54:30.353Z,43.17
2022-12-01T08:56:58.333Z,63.63
2022-12-01T08:59:26.405Z,49.80
2022-12-01T09:01:54.493Z,57.10
2022-12-01T09:04:24.242Z,56.70
2022-12-01T09:06:53.998Z,37.80
2022-12-01T09:09:23.536Z,38.53
2022-12-01T09:11:53.445Z,41.80
2022-12-01T09:14:22.708Z,46.97
2022-12-01T09:16:51.578Z,53.50
2022-12-01T09:19:24.548Z,52.37
2022-12-01T09:21:53.790Z,38.87
2022-12-01T09:24:21.737Z,42.13
2022-12-01T09:26:49.706Z,38.27
2022-12-01T09:29:19.114Z,50.97
2022-12-01T09:31:47.062Z,38.27
2022-12-01T09:34:16.916Z,54.17
2022-12-01T09:36:45.083Z,40.33
2022-12-01T09:39:14.969Z,51.60
2022-12-01T09:41:47.081Z,49.83
2022-12-01T09:44:24.370Z,41.27
2022-12-01T09:46:57.109Z,46.30
2022-12-01T09:49:30.355Z,51.70
2022-12-01T09:52:00.963Z,39.60
2022-12-01T09:54:30.521Z,38.33
2022-12-01T09:57:00.248Z,40.43
2022-12-01T09:59:37.681Z,61.23
2022-12-01T10:02:27.578Z,46.70
2022-12-01T10:04:58.941Z,43.43
2022-12-01T10:07:29.677Z,57.97
2022-12-01T10:10:00.496Z,67.17
2022-12-01T10:12:33.669Z,51.10
2022-12-01T10:15:22.888Z,53.90
2022-12-01T10:18:02.899Z,45.43
2022-12-01T10:20:37.853Z,58.50
2022-12-01T10:23:19.966Z,49.23
2022-12-01T10:25:57.281Z,52.53
2022-12-01T10:28:51.662Z,55.00
2022-12-01T10:31:22.771Z,66.30
2022-12-01T10:33:59.681Z,54.93
2022-12-01T10:36:29.362Z,63.23
2022-12-01T10:38:57.819Z,54.03
2022-12-01T10:41:29.141Z,43.93
2022-12-01T10:44:00.956Z,55.77
2022-12-01T10:46:36.485Z,60.87
2022-12-01T10:49:09.733Z,59.87
2022-12-01T10:51:54.943Z,43.20
2022-12-01T10:54:25.575Z,45.90
2022-12-01T10:56:57.623Z,58.73
2022-12-01T10:59:29.863Z,65.60
2022-12-01T11:02:01.816Z,62.07
2022-12-01T11:04:45.092Z,64.27
2022-12-01T11:07:23.647Z,60.40
2022-12-01T11:10:03.187Z,74.83
2022-12-01T11:12:31.277Z,61.50
2022-12-01T11:14:59.613Z,52.97
2022-12-01T11:17:32.180Z,62.87
2022-12-01T11:20:18.306Z,67.07
2022-12-01T11:22:54.952Z,61.00
2022-12-01T11:25:23.447Z,55.70
2022-12-01T11:27:57.561Z,79.00
2022-12-01T11:30:27.293Z,70.10
2022-12-01T11:32:58.167Z,62.07
2022-12-01T11:35:30.275Z,71.10
2022-12-01T11:38:30.966Z,65.63
2022-12-01T11:40:51.589Z,63.50
2022-12-01T11:43:28.594Z,71.77
2022-12-01T11:45:58.705Z,87.13
2022-12-01T11:48:28.567Z,76.67
2022-12-01T11:51:06.871Z,74.33
2022-12-01T11:53:37.740Z,75.03
2022-12-01T11:56:23.607Z,62.27
2022-12-01T11:58:56.843Z,71.63
2022-12-01T12:01:37.072Z,81.77
2022-12-01T12:04:19.313Z,71.43
2022-12-01T12:06:54.863Z,71.20
2022-12-01T12:09:41.743Z,49.60
2022-12-01T12:12:23.124Z,65.70
2022-12-01T12:15:00.994Z,56.30
2022-12-01T12:17:43.998Z,74.87
2022-12-01T12:20:34.293Z,60.60
2022-12-01T12:23:16.237Z,66.17
2022-12-01T12:25:56.579Z,58.53
2022-12-01T12:28:39.380Z,62.07
2022-12-01T12:31:20.178Z,65.40
2022-12-01T12:34:12.039Z,68.07
2022-12-01T12:36:47.285Z,67.27
2022-12-01T12:39:32.299Z,63.77
2022-12-01T12:42:08.473Z,69.53
2022-12-01T12:44:50.818Z,72.93
2022-12-01T12:47:30.112Z,72.33
2022-12-01T12:50:08.085Z,69.37
2022-12-01T12:52:40.699Z,62.87
2022-12-01T12:55:16.563Z,49.30
2022-12-01T12:57:51.063Z,64.80
2022-12-01T13:00:21.937Z,57.43
2022-12-01T13:02:54.242Z,52.73
2022-12-01T13:05:26.835Z,54.43
2022-12-01T13:07:58.384Z,56.07
2022-12-01T13:10:33.695Z,49.53
2022-12-01T13:13:14.402Z,48.23
2022-12-01T13:15:43.642Z,58.23
2022-12-01T13:18:20.016Z,54.67
2022-12-01T13:20:49.088Z,54.93
2022-12-01T13:23:20.258Z,50.83
2022-12-01T13:25:51.462Z,58.80
2022-12-01T13:28:26.424Z,52.20
2022-12-01T13:31:02.691Z,44.10
2022-12-01T13:33:31.964Z,55.97
2022-12-01T13:36:38.084Z,45.70
2022-12-01T13:38:58.007Z,46.77
2022-12-01T13:41:29.563Z,38.23
2022-12-01T13:44:03.649Z,39.80
2022-12-01T13:46:33.894Z,38.13
2022-12-01T13:49:04.097Z,48.90
2022-12-01T13:52:19.506Z,41.10
2022-12-01T13:55:16.536Z,48.30
2022-12-01T13:57:48.590Z,54.17
2022-12-01T14:00:27.380Z,38.17
2022-12-01T14:03:32.849Z,41.53
2022-12-01T14:06:20.818Z,51.13
2022-12-01T14:08:50.278Z,42.80
2022-12-01T14:11:23.858Z,50.70
2022-12-01T14:13:55.608Z,40.33
2022-12-01T14:16:25.619Z,45.33
2022-12-01T14:18:56.788Z,42.27
2022-12-01T14:21:44.083Z,43.17
2022-12-01T14:24:23.555Z,48.07
2022-12-01T14:26:52.696Z,35.53
2022-12-01T14:29:32.570Z,39.90
2022-12-01T14:32:24.048Z,42.97
2022-12-01T14:35:05.080Z,41.57
2022-12-01T14:37:47.016Z,35.40
2022-12-01T14:40:20.489Z,37.80
2022-12-01T14:43:10.564Z,41.13
2022-12-01T14:45:43.791Z,34.87
2022-12-01T14:48:18.082Z,36.17
2022-12-01T14:50:50.197Z,43.10
2022-12-01T14:53:24.851Z,45.67
2022-12-01T14:55:57.513Z,40.63
2022-12-01T14:58:28.846Z,47.50
2022-12-01T15:01:02.037Z,35.53
2022-12-01T15:03:36.714Z,50.20
2022-12-01T15:06:05.058Z,47.30
2022-12-01T15:08:49.255Z,39.37
2022-12-01T15:11:27.322Z,37.33
2022-12-01T15:13:57.062Z,41.37
2022-12-01T15:16:27.357Z,39.37
2022-12-01T15:18:57.245Z,29.07
2022-12-01T15:21:29.269Z,47.93
2022-12-01T15:23:59.948Z,33.63
2022-12-01T15:26:31.641Z,34.17
2022-12-01T15:29:14.343Z,38.73
2022-12-01T15:31:43.857Z,41.80
2022-12-01T15:34:17.420Z,32.57
2022-12-01T15:36:46.057Z,43.87
2022-12-01T15:39:17.271Z,51.60
2022-12-01T15:41:47.431Z,40.40
2022-12-01T15:44:21.798Z,37.00
2022-12-01T15:46:49.873Z,39.03
2022-12-01T15:49:21.546Z,55.53
2022-12-01T15:51:51.266Z,32.93
2022-12-01T15:54:22.026Z,35.20
2022-12-01T15:56:54.937Z,41.70
2022-12-01T15:59:29.994Z,35.43
2022-12-01T16:01:58.410Z,44.77
2022-12-01T16:04:29.565Z,40.27
2022-12-01T16:07:01.234Z,39.73
2022-12-01T16:09:33.308Z,33.97
2022-12-01T16:12:07.170Z,34.33
2022-12-01T16:14:36.013Z,37.53
2022-12-01T16:17:05.899Z,34.67
2022-12-01T16:19:36.255Z,42.30
2022-12-01T16:22:14.420Z,44.00
2022-12-01T16:24:46.677Z,34.30
2022-12-01T16:27:25.784Z,36.33
2022-12-01T16:29:56.445Z,43.60
2022-12-01T16:32:33.382Z,41.77
2022-12-01T16:35:04.400Z,47.20
2022-12-01T16:37:32.878Z,34.73
2022-12-01T16:40:01.297Z,42.20
2022-12-01T16:42:29.423Z,32.03
2022-12-01T16:44:57.515Z,45.33
2022-12-01T16:47:26.784Z,40.60
2022-12-01T16:49:54.882Z,36.83
2022-12-01T16:55:27.144Z,37.07
2022-12-01T16:57:55.995Z,39.10
2022-12-01T17:00:24.566Z,31.37
2022-12-01T17:02:53.440Z,38.97
2022-12-01T17:05:21.555Z,36.07
2022-12-01T17:07:51.284Z,33.20
2022-12-01T17:10:19.435Z,30.70
2022-12-01T17:12:47.522Z,32.83
2022-12-01T17:15:15.987Z,37.90
2022-12-01T17:17:44.269Z,35.53
2022-12-01T17:20:12.943Z,36.70
2022-12-01T17:22:41.002Z,44.00
2022-12-01T17:25:11.312Z,31.57
2022-12-01T17:27:39.961Z,28.47
2022-12-01T17:30:09.693Z,38.60
2022-12-01T17:32:38.331Z,39.17
2022-12-01T17:35:07.326Z,39.77
2022-12-01T17:37:37.988Z,32.37
2022-12-01T17:40:07.039Z,31.27
2022-12-01T17:42:37.047Z,36.73
2022-12-01T17:45:05.916Z,31.70
2022-12-01T17:47:33.945Z,30.10
2022-12-01T17:50:01.937Z,32.67
2022-12-01T17:52:30.307Z,40.13
2022-12-01T17:54:59.196Z,35.87
2022-12-01T17:57:27.370Z,26.50
2022-12-01T17:59:57.103Z,36.80
2022-12-01T18:02:25.529Z,32.57
2022-12-01T18:04:53.738Z,31.60
2022-12-01T18:07:22.349Z,44.47
2022-12-01T18:09:50.558Z,29.87
2022-12-01T18:12:18.907Z,40.57
2022-12-01T18:14:47.507Z,34.20
2022-12-01T18:17:17.117Z,29.50
2022-12-01T18:19:45.373Z,33.33
2022-12-01T18:22:13.382Z,25.97
2022-12-01T18:24:41.324Z,38.93
2022-12-01T18:27:09.484Z,35.33
2022-12-01T18:29:37.751Z,38.13
2022-12-01T18:32:06.765Z,31.50
2022-12-01T18:34:36.139Z,26.67
2022-12-01T18:37:06.022Z,36.17
2022-12-01T18:39:34.164Z,35.63
2022-12-01T18:42:02.598Z,42.00
2022-12-01T18:44:31.034Z,33.87
2022-12-01T18:46:59.241Z,41.10
2022-12-01T18:49:27.382Z,34.33
2022-12-01T18:51:57.367Z,37.03
2022-12-01T18:54:25.452Z,40.50
2022-12-01T18:56:55.078Z,40.33
2022-12-01T18:59:23.280Z,38.13
2022-12-01T19:01:52.379Z,35.40
2022-12-01T19:04:20.760Z,40.40
2022-12-01T19:06:48.874Z,35.23
2022-12-01T19:09:18.311Z,33.77
2022-12-01T19:11:46.574Z,31.17
2022-12-01T19:14:17.108Z,26.57
2022-12-01T19:16:45.298Z,33.30
2022-12-01T19:19:13.553Z,35.53
2022-12-01T19:21:42.885Z,42.30
2022-12-01T19:24:10.956Z,40.57
2022-12-01T19:26:40.545Z,40.47
2022-12-01T19:29:08.753Z,36.50
2022-12-01T19:31:37.609Z,38.93
2022-12-01T19:34:05.764Z,26.50
2022-12-01T19:36:33.973Z,38.00
2022-12-01T19:39:04.428Z,38.07
2022-12-01T19:41:35.513Z,30.13
2022-12-01T19:44:05.399Z,44.03
2022-12-01T19:46:33.448Z,41.17
2022-12-01T19:49:02.751Z,37.43
2022-12-01T19:51:35.364Z,49.17
2022-12-01T19:54:03.970Z,36.67
2022-12-01T19:56:32.384Z,32.13
2022-12-01T19:59:00.638Z,32.47
2022-12-01T20:01:30.228Z,33.97
2022-12-01T20:03:58.292Z,35.70
2022-12-01T20:06:28.913Z,34.77
2022-12-01T20:08:58.572Z,34.60
2022-12-01T20:11:27.314Z,33.03
2022-12-01T20:13:55.624Z,39.30
2022-12-01T20:16:25.407Z,42.00
2022-12-01T20:18:55.575Z,37.40
2022-12-01T20:21:26.359Z,35.93
2022-12-01T20:23:58.171Z,30.77
2022-12-01T20:26:30.582Z,33.13
2022-12-01T20:29:02.538Z,35.07
2022-12-01T20:31:32.066Z,31.07
2022-12-01T20:34:03.474Z,30.37
2022-12-01T20:36:31.758Z,39.53
2022-12-01T20:39:00.086Z,40.20
2022-12-01T20:41:28.335Z,36.67
2022-12-01T20:43:56.368Z,39.40
2022-12-01T20:46:24.483Z,24.27
2022-12-01T20:48:53.055Z,31.87
2022-12-01T20:51:22.817Z,34.23
2022-12-01T20:54:19.851Z,36.10
2022-12-01T20:56:39.236Z,32.60
2022-12-01T20:59:07.429Z,36.70
2022-12-01T21:01:35.778Z,29.10
2022-12-01T21:04:04.075Z,40.17
2022-12-01T21:06:33.982Z,37.73
2022-12-01T21:09:03.841Z,29.40
2022-12-01T21:11:56.071Z,33.57
2022-12-01T21:14:30.847Z,25.50
2022-12-01T21:17:05.191Z,29.90
2022-12-01T21:19:45.134Z,33.13
2022-12-01T21:22:15.254Z,33.57
2022-12-01T21:24:44.008Z,30.67
2022-12-01T21:27:15.531Z,31.87
2022-12-01T21:29:46.138Z,25.33
2022-12-01T21:32:15.820Z,31.90
2022-12-01T21:34:45.083Z,31.73
2022-12-01T21:37:21.431Z,28.17
2022-12-01T21:39:51.129Z,36.10
2022-12-01T21:42:21.658Z,37.87
2022-12-01T21:44:50.876Z,37.70
2022-12-01T21:47:21.565Z,30.27
2022-12-01T21:49:52.302Z,33.30
2022-12-01T21:52:29.826Z,31.40
2022-12-01T21:55:02.018Z,30.67
2022-12-01T21:57:43.070Z,40.60
2022-12-01T22:00:29.540Z,31.40
2022-12-01T22:06:38.957Z,40.57
2022-12-01T22:09:17.660Z,31.07
2022-12-01T22:11:48.531Z,33.70
2022-12-01T22:14:19.635Z,30.83
2022-12-01T22:16:51.167Z,33.93
2022-12-01T22:19:27.299Z,30.03
2022-12-01T22:22:01.678Z,24.53
2022-12-01T22:24:38.215Z,28.13
2022-12-01T22:27:32.265Z,31.77
2022-12-01T22:30:03.061Z,28.97
2022-12-01T22:32:37.704Z,25.77
2022-12-01T22:35:32.482Z,28.17
2022-12-01T22:38:34.020Z,27.50
2022-12-01T22:41:06.124Z,24.90
2022-12-01T22:43:48.336Z,23.33
2022-12-01T22:46:33.187Z,31.40
2022-12-01T22:49:04.303Z,23.60
2022-12-01T22:51:38.878Z,28.23
2022-12-01T22:54:30.339Z,35.40
2022-12-01T22:57:25.360Z,28.93
2022-12-01T22:59:53.945Z,30.23
2022-12-01T23:02:23.590Z,27.47
2022-12-01T23:04:56.618Z,31.13
2022-12-01T23:07:35.341Z,38.33
2022-12-01T23:10:12.089Z,31.37
2022-12-01T23:12:42.119Z,31.73
2022-12-01T23:15:22.177Z,38.43
2022-12-01T23:17:50.362Z,24.50
2022-12-01T23:20:32.392Z,31.80
2022-12-01T23:23:02.549Z,38.43
2022-12-01T23:25:31.829Z,28.30
2022-12-01T23:28:05.347Z,28.03
2022-12-01T23:30:34.034Z,30.10
2022-12-01T23:33:15.309Z,29.00
2022-12-01T23:35:47.758Z,23.80
2022-12-01T23:38:22.483Z,32.27
2022-12-01T23:40:52.719Z,21.57
2022-12-01T23:43:24.130Z,26.23
2022-12-01T23:46:00.571Z,29.57
2022-12-01T23:48:35.035Z,25.20
2022-12-01T23:51:03.640Z,28.43
2022-12-01T23:53:33.647Z,28.40
2022-12-01T23:56:07.117Z,32.17
2022-12-01T23:58:37.105Z,30.33
